Portada
METAR-TAF:

METAR-TAF

Aeroports :

York Airport

York, Pennsilvània, Estats Units d'Amèrica

latitud: 39-55-10N, longitud: 076-52-37W, altitud: 146 m

Observació

L'informe es va fer fa 32 minuts, a les 22:53 UTC
Vent 4 kt del Sud/Sud-Est
Temperatura 19°C
Humitat 73%
Pressió 1022 hPa
Visibilitat: 16.1 km
Cel cobert a una alçada de 2500 ft

METAR: KTHV 242253Z AUTO 16004KT 10SM OVC025 19/14 A3017 RMK AO2 SLP216 T01890139

Hora: 19:25 (23:25 UTC)


TAF: manca

Observacions i pronòstics meteorològics de més de 4000 aeroports (METAR i TAF).

Les estacions disponibles són els punts grocs i vermells al mapa.

Posi el ratolí al punt desitjat per veure el nom de l'estació.

Feu clic per veure les observacions i els pronòstics meteorològics.

Per canviar el mapa: feu clic els botons verds amb una creu de color negre per apropar; al botó verd amb un guió per allunyar la imatge; o en les fletxes verdes per a mapes adjacents.


METAR-TAF: